sensor_id;sensor_type;location;lat;lon;timestamp;temperature;humidity
11617;DHT22;5864;52.998;9.068;2023-05-29T00:02:39;13.30;99.90
11617;DHT22;5864;52.998;9.068;2023-05-29T00:05:28;11.70;99.90
11617;DHT22;5864;52.998;9.068;2023-05-29T00:08:14;11.80;99.90
11617;DHT22;5864;52.998;9.068;2023-05-29T00:11:01;11.70;99.90
11617;DHT22;5864;52.998;9.068;2023-05-29T00:13:46;11.50;99.90
11617;DHT22;5864;52.998;9.068;2023-05-29T00:16:32;11.60;99.90
11617;DHT22;5864;52.998;9.068;2023-05-29T00:19:18;11.70;99.90
11617;DHT22;5864;52.998;9.068;2023-05-29T00:22:04;11.80;99.90
11617;DHT22;5864;52.998;9.068;2023-05-29T00:24:50;11.80;99.90
11617;DHT22;5864;52.998;9.068;2023-05-29T00:27:37;11.90;99.90
11617;DHT22;5864;52.998;9.068;2023-05-29T00:30:23;11.80;99.90
11617;DHT22;5864;52.998;9.068;2023-05-29T00:33:08;11.70;99.90
11617;DHT22;5864;52.998;9.068;2023-05-29T00:35:55;11.60;99.90
11617;DHT22;5864;52.998;9.068;2023-05-29T00:38:40;11.40;99.90
11617;DHT22;5864;52.998;9.068;2023-05-29T00:41:27;11.60;99.90
11617;DHT22;5864;52.998;9.068;2023-05-29T00:44:14;11.40;99.90
11617;DHT22;5864;52.998;9.068;2023-05-29T00:47:00;11.40;99.90
11617;DHT22;5864;52.998;9.068;2023-05-29T00:49:45;11.30;99.90
11617;DHT22;5864;52.998;9.068;2023-05-29T00:52:32;11.60;99.90
11617;DHT22;5864;52.998;9.068;2023-05-29T00:55:18;11.40;99.90
11617;DHT22;5864;52.998;9.068;2023-05-29T00:58:04;11.20;99.90
11617;DHT22;5864;52.998;9.068;2023-05-29T01:00:52;11.20;99.90
11617;DHT22;5864;52.998;9.068;2023-05-29T01:03:38;11.40;99.90
11617;DHT22;5864;52.998;9.068;2023-05-29T01:06:24;11.40;99.90
11617;DHT22;5864;52.998;9.068;2023-05-29T01:09:10;11.20;99.90
11617;DHT22;5864;52.998;9.068;2023-05-29T01:11:59;11.20;99.90
11617;DHT22;5864;52.998;9.068;2023-05-29T01:14:55;11.20;99.90
11617;DHT22;5864;52.998;9.068;2023-05-29T01:17:51;11.20;99.90
11617;DHT22;5864;52.998;9.068;2023-05-29T01:20:44;11.00;99.90
11617;DHT22;5864;52.998;9.068;2023-05-29T01:23:52;11.10;99.90
11617;DHT22;5864;52.998;9.068;2023-05-29T01:26:50;11.10;99.90
11617;DHT22;5864;52.998;9.068;2023-05-29T01:29:39;11.00;99.90
11617;DHT22;5864;52.998;9.068;2023-05-29T01:32:27;10.90;99.90
11617;DHT22;5864;52.998;9.068;2023-05-29T01:35:13;11.00;99.90
11617;DHT22;5864;52.998;9.068;2023-05-29T01:37:58;11.10;99.90
11617;DHT22;5864;52.998;9.068;2023-05-29T01:40:44;11.20;99.90
11617;DHT22;5864;52.998;9.068;2023-05-29T01:43:32;12.10;99.90
11617;DHT22;5864;52.998;9.068;2023-05-29T01:46:18;11.20;99.90
11617;DHT22;5864;52.998;9.068;2023-05-29T01:49:05;11.20;99.90
11617;DHT22;5864;52.998;9.068;2023-05-29T01:51:51;11.20;99.80
11617;DHT22;5864;52.998;9.068;2023-05-29T01:54:36;11.40;97.60
11617;DHT22;5864;52.998;9.068;2023-05-29T01:57:22;11.30;96.20
11617;DHT22;5864;52.998;9.068;2023-05-29T02:00:12;10.90;97.50
11617;DHT22;5864;52.998;9.068;2023-05-29T02:02:58;11.00;99.90
11617;DHT22;5864;52.998;9.068;2023-05-29T02:05:43;11.70;98.20
11617;DHT22;5864;52.998;9.068;2023-05-29T02:08:29;10.80;96.30
11617;DHT22;5864;52.998;9.068;2023-05-29T02:11:15;10.90;97.00
11617;DHT22;5864;52.998;9.068;2023-05-29T02:14:00;11.00;97.50
11617;DHT22;5864;52.998;9.068;2023-05-29T02:16:49;10.90;99.10
11617;DHT22;5864;52.998;9.068;2023-05-29T02:19:35;10.90;96.00
11617;DHT22;5864;52.998;9.068;2023-05-29T02:22:21;11.00;94.20
11617;DHT22;5864;52.998;9.068;2023-05-29T02:25:07;11.90;93.70
11617;DHT22;5864;52.998;9.068;2023-05-29T02:27:52;10.80;95.00
11617;DHT22;5864;52.998;9.068;2023-05-29T02:30:39;10.60;96.50
11617;DHT22;5864;52.998;9.068;2023-05-29T02:33:26;11.70;99.90
11617;DHT22;5864;52.998;9.068;2023-05-29T02:36:11;10.60;97.60
11617;DHT22;5864;52.998;9.068;2023-05-29T02:38:57;10.50;98.60
11617;DHT22;5864;52.998;9.068;2023-05-29T02:41:42;10.50;99.10
11617;DHT22;5864;52.998;9.068;2023-05-29T02:44:29;10.60;99.20
11617;DHT22;5864;52.998;9.068;2023-05-29T02:47:14;10.70;95.60
11617;DHT22;5864;52.998;9.068;2023-05-29T02:50:01;10.50;95.90
11617;DHT22;5864;52.998;9.068;2023-05-29T02:52:47;12.00;99.90
11617;DHT22;5864;52.998;9.068;2023-05-29T02:55:34;10.50;96.10
11617;DHT22;5864;52.998;9.068;2023-05-29T02:58:19;10.60;97.50
11617;DHT22;5864;52.998;9.068;2023-05-29T03:01:06;10.50;97.20
11617;DHT22;5864;52.998;9.068;2023-05-29T03:03:52;10.80;99.50
11617;DHT22;5864;52.998;9.068;2023-05-29T03:06:39;10.50;96.10
11617;DHT22;5864;52.998;9.068;2023-05-29T03:09:24;10.50;95.90
11617;DHT22;5864;52.998;9.068;2023-05-29T03:12:10;10.40;97.60
11617;DHT22;5864;52.998;9.068;2023-05-29T03:14:56;10.50;97.40
11617;DHT22;5864;52.998;9.068;2023-05-29T03:17:41;10.50;96.90
11617;DHT22;5864;52.998;9.068;2023-05-29T03:20:27;10.40;96.20
11617;DHT22;5864;52.998;9.068;2023-05-29T03:23:14;10.50;96.80
11617;DHT22;5864;52.998;9.068;2023-05-29T03:26:00;10.50;97.50
11617;DHT22;5864;52.998;9.068;2023-05-29T03:28:45;10.50;95.50
11617;DHT22;5864;52.998;9.068;2023-05-29T03:31:32;10.40;95.70
11617;DHT22;5864;52.998;9.068;2023-05-29T03:34:18;10.30;96.80
11617;DHT22;5864;52.998;9.068;2023-05-29T03:37:04;10.30;99.50
11617;DHT22;5864;52.998;9.068;2023-05-29T03:39:51;10.20;98.40
11617;DHT22;5864;52.998;9.068;2023-05-29T03:42:36;10.20;99.80
11617;DHT22;5864;52.998;9.068;2023-05-29T03:45:22;10.20;99.00
11617;DHT22;5864;52.998;9.068;2023-05-29T03:48:08;10.50;95.10
11617;DHT22;5864;52.998;9.068;2023-05-29T03:50:53;10.40;94.80
11617;DHT22;5864;52.998;9.068;2023-05-29T03:53:39;10.30;95.60
11617;DHT22;5864;52.998;9.068;2023-05-29T03:56:26;10.20;96.70
11617;DHT22;5864;52.998;9.068;2023-05-29T03:59:12;10.20;96.50
11617;DHT22;5864;52.998;9.068;2023-05-29T04:01:57;10.30;93.10
11617;DHT22;5864;52.998;9.068;2023-05-29T04:04:43;10.30;97.20
11617;DHT22;5864;52.998;9.068;2023-05-29T04:07:29;10.50;96.40
11617;DHT22;5864;52.998;9.068;2023-05-29T04:10:15;10.40;96.30
11617;DHT22;5864;52.998;9.068;2023-05-29T04:13:01;10.60;96.20
11617;DHT22;5864;52.998;9.068;2023-05-29T04:15:48;10.60;95.70
11617;DHT22;5864;52.998;9.068;2023-05-29T04:18:36;11.00;95.60
11617;DHT22;5864;52.998;9.068;2023-05-29T04:21:22;10.80;88.30
11617;DHT22;5864;52.998;9.068;2023-05-29T04:24:07;10.70;89.00
11617;DHT22;5864;52.998;9.068;2023-05-29T04:26:54;10.80;95.20
11617;DHT22;5864;52.998;9.068;2023-05-29T04:29:41;10.90;92.00
11617;DHT22;5864;52.998;9.068;2023-05-29T04:32:27;11.10;87.10
11617;DHT22;5864;52.998;9.068;2023-05-29T04:35:13;11.30;81.40
11617;DHT22;5864;52.998;9.068;2023-05-29T04:37:59;11.00;81.90
11617;DHT22;5864;52.998;9.068;2023-05-29T04:40:45;11.10;85.70
11617;DHT22;5864;52.998;9.068;2023-05-29T04:43:32;11.00;82.50
11617;DHT22;5864;52.998;9.068;2023-05-29T04:46:22;10.70;91.00
11617;DHT22;5864;52.998;9.068;2023-05-29T04:49:08;10.80;91.50
11617;DHT22;5864;52.998;9.068;2023-05-29T04:51:55;11.00;86.30
11617;DHT22;5864;52.998;9.068;2023-05-29T04:54:44;10.90;90.20
11617;DHT22;5864;52.998;9.068;2023-05-29T04:57:29;11.00;90.20
11617;DHT22;5864;52.998;9.068;2023-05-29T05:00:16;11.00;91.30
11617;DHT22;5864;52.998;9.068;2023-05-29T05:03:03;11.20;85.60
11617;DHT22;5864;52.998;9.068;2023-05-29T05:05:50;11.10;81.90
11617;DHT22;5864;52.998;9.068;2023-05-29T05:08:36;11.20;80.50
11617;DHT22;5864;52.998;9.068;2023-05-29T05:11:23;11.40;73.30
11617;DHT22;5864;52.998;9.068;2023-05-29T05:14:09;11.30;73.50
11617;DHT22;5864;52.998;9.068;2023-05-29T05:16:55;11.20;83.50
11617;DHT22;5864;52.998;9.068;2023-05-29T05:19:42;11.80;83.70
11617;DHT22;5864;52.998;9.068;2023-05-29T05:22:27;11.50;74.40
11617;DHT22;5864;52.998;9.068;2023-05-29T05:25:13;11.80;74.70
11617;DHT22;5864;52.998;9.068;2023-05-29T05:27:58;11.80;59.80
11617;DHT22;5864;52.998;9.068;2023-05-29T05:30:45;11.50;67.40
11617;DHT22;5864;52.998;9.068;2023-05-29T05:33:30;11.50;75.10
11617;DHT22;5864;52.998;9.068;2023-05-29T05:36:18;11.40;73.60
11617;DHT22;5864;52.998;9.068;2023-05-29T05:39:04;11.20;91.30
11617;DHT22;5864;52.998;9.068;2023-05-29T05:41:50;11.30;82.60
11617;DHT22;5864;52.998;9.068;2023-05-29T05:44:36;11.60;88.20
11617;DHT22;5864;52.998;9.068;2023-05-29T05:47:21;11.60;70.70
11617;DHT22;5864;52.998;9.068;2023-05-29T05:50:08;11.70;69.60
11617;DHT22;5864;52.998;9.068;2023-05-29T05:52:55;11.60;72.00
11617;DHT22;5864;52.998;9.068;2023-05-29T05:55:41;11.80;66.70
11617;DHT22;5864;52.998;9.068;2023-05-29T05:58:26;11.90;70.70
11617;DHT22;5864;52.998;9.068;2023-05-29T06:01:12;12.00;71.20
11617;DHT22;5864;52.998;9.068;2023-05-29T06:03:58;13.20;60.10
11617;DHT22;5864;52.998;9.068;2023-05-29T06:06:44;12.80;39.50
11617;DHT22;5864;52.998;9.068;2023-05-29T06:09:31;13.40;36.20
11617;DHT22;5864;52.998;9.068;2023-05-29T06:12:17;13.10;36.70
11617;DHT22;5864;52.998;9.068;2023-05-29T06:15:03;12.90;42.50
11617;DHT22;5864;52.998;9.068;2023-05-29T06:17:50;13.30;38.40
11617;DHT22;5864;52.998;9.068;2023-05-29T06:20:36;13.60;23.40
11617;DHT22;5864;52.998;9.068;2023-05-29T06:23:22;13.00;28.50
11617;DHT22;5864;52.998;9.068;2023-05-29T06:26:09;13.10;31.90
11617;DHT22;5864;52.998;9.068;2023-05-29T06:28:56;13.50;30.30
11617;DHT22;5864;52.998;9.068;2023-05-29T06:31:42;13.80;23.00
11617;DHT22;5864;52.998;9.068;2023-05-29T06:34:27;13.80;24.00
11617;DHT22;5864;52.998;9.068;2023-05-29T06:37:13;13.90;20.20
11617;DHT22;5864;52.998;9.068;2023-05-29T06:39:59;14.20;20.10
11617;DHT22;5864;52.998;9.068;2023-05-29T06:42:46;14.70;17.90
11617;DHT22;5864;52.998;9.068;2023-05-29T06:45:31;14.80;18.10
11617;DHT22;5864;52.998;9.068;2023-05-29T06:48:17;15.30;12.70
11617;DHT22;5864;52.998;9.068;2023-05-29T06:51:03;15.30;12.40
11617;DHT22;5864;52.998;9.068;2023-05-29T06:53:52;15.70;13.20
11617;DHT22;5864;52.998;9.068;2023-05-29T06:56:38;15.90;10.20
11617;DHT22;5864;52.998;9.068;2023-05-29T06:59:25;16.10;5.40
11617;DHT22;5864;52.998;9.068;2023-05-29T07:02:10;16.10;3.90
11617;DHT22;5864;52.998;9.068;2023-05-29T07:04:56;16.10;1.70
11617;DHT22;5864;52.998;9.068;2023-05-29T07:07:42;16.20;2.60
11617;DHT22;5864;52.998;9.068;2023-05-29T07:10:27;16.00;4.30
11617;DHT22;5864;52.998;9.068;2023-05-29T07:13:15;16.20;3.70
11617;DHT22;5864;52.998;9.068;2023-05-29T07:16:03;16.70;1.80
11617;DHT22;5864;52.998;9.068;2023-05-29T07:18:50;16.80;1.00
11617;DHT22;5864;52.998;9.068;2023-05-29T07:21:35;17.00;1.00
11617;DHT22;5864;52.998;9.068;2023-05-29T07:24:21;16.80;1.00
11617;DHT22;5864;52.998;9.068;2023-05-29T07:27:07;17.00;1.00
11617;DHT22;5864;52.998;9.068;2023-05-29T07:29:53;17.30;1.00
11617;DHT22;5864;52.998;9.068;2023-05-29T07:32:40;17.60;1.00
11617;DHT22;5864;52.998;9.068;2023-05-29T07:35:26;17.10;1.00
11617;DHT22;5864;52.998;9.068;2023-05-29T07:38:11;16.90;1.00
11617;DHT22;5864;52.998;9.068;2023-05-29T07:40:57;17.30;1.00
11617;DHT22;5864;52.998;9.068;2023-05-29T07:43:43;17.70;1.00
11617;DHT22;5864;52.998;9.068;2023-05-29T07:46:29;17.90;1.00
11617;DHT22;5864;52.998;9.068;2023-05-29T07:49:17;17.70;1.00
11617;DHT22;5864;52.998;9.068;2023-05-29T07:52:03;18.00;1.00
11617;DHT22;5864;52.998;9.068;2023-05-29T07:54:49;17.80;1.00
11617;DHT22;5864;52.998;9.068;2023-05-29T07:57:35;17.70;1.00
11617;DHT22;5864;52.998;9.068;2023-05-29T08:00:21;17.40;1.00
11617;DHT22;5864;52.998;9.068;2023-05-29T08:03:07;18.00;1.00
11617;DHT22;5864;52.998;9.068;2023-05-29T08:05:54;18.60;1.00
11617;DHT22;5864;52.998;9.068;2023-05-29T08:08:40;18.50;1.00
11617;DHT22;5864;52.998;9.068;2023-05-29T08:11:27;18.30;1.00
11617;DHT22;5864;52.998;9.068;2023-05-29T08:14:14;18.50;1.00
11617;DHT22;5864;52.998;9.068;2023-05-29T08:17:00;18.40;1.00
11617;DHT22;5864;52.998;9.068;2023-05-29T08:19:46;18.80;1.00
11617;DHT22;5864;52.998;9.068;2023-05-29T08:22:33;19.80;1.00
11617;DHT22;5864;52.998;9.068;2023-05-29T08:25:19;20.20;1.00
11617;DHT22;5864;52.998;9.068;2023-05-29T08:28:04;20.40;1.00
11617;DHT22;5864;52.998;9.068;2023-05-29T08:30:50;20.40;1.00
11617;DHT22;5864;52.998;9.068;2023-05-29T08:33:35;19.70;1.00
11617;DHT22;5864;52.998;9.068;2023-05-29T08:36:22;19.30;1.00
11617;DHT22;5864;52.998;9.068;2023-05-29T08:39:09;19.60;1.00
11617;DHT22;5864;52.998;9.068;2023-05-29T08:42:00;19.60;1.00
11617;DHT22;5864;52.998;9.068;2023-05-29T08:44:47;19.50;1.00
11617;DHT22;5864;52.998;9.068;2023-05-29T08:47:33;20.50;1.00
11617;DHT22;5864;52.998;9.068;2023-05-29T08:50:19;21.20;1.00
11617;DHT22;5864;52.998;9.068;2023-05-29T08:53:05;21.70;1.00
11617;DHT22;5864;52.998;9.068;2023-05-29T08:55:53;21.90;1.00
11617;DHT22;5864;52.998;9.068;2023-05-29T08:58:39;21.80;1.00
11617;DHT22;5864;52.998;9.068;2023-05-29T09:01:25;21.90;1.00
11617;DHT22;5864;52.998;9.068;2023-05-29T09:04:12;22.40;1.00
11617;DHT22;5864;52.998;9.068;2023-05-29T09:06:58;22.60;1.00
11617;DHT22;5864;52.998;9.068;2023-05-29T09:09:45;22.30;1.00
11617;DHT22;5864;52.998;9.068;2023-05-29T09:12:32;22.50;1.00
11617;DHT22;5864;52.998;9.068;2023-05-29T09:15:20;22.30;1.00
11617;DHT22;5864;52.998;9.068;2023-05-29T09:18:06;22.10;1.00
11617;DHT22;5864;52.998;9.068;2023-05-29T09:20:52;22.70;1.00
11617;DHT22;5864;52.998;9.068;2023-05-29T09:23:39;23.40;1.00
11617;DHT22;5864;52.998;9.068;2023-05-29T09:26:24;22.60;1.00
11617;DHT22;5864;52.998;9.068;2023-05-29T09:29:12;23.20;1.00
11617;DHT22;5864;52.998;9.068;2023-05-29T09:31:58;22.70;1.00
11617;DHT22;5864;52.998;9.068;2023-05-29T09:34:44;23.10;1.00
11617;DHT22;5864;52.998;9.068;2023-05-29T09:37:30;22.00;1.00
11617;DHT22;5864;52.998;9.068;2023-05-29T09:40:17;21.90;1.00
11617;DHT22;5864;52.998;9.068;2023-05-29T09:43:04;21.70;1.00
11617;DHT22;5864;52.998;9.068;2023-05-29T09:45:53;22.20;1.00
11617;DHT22;5864;52.998;9.068;2023-05-29T09:48:40;21.20;1.00
11617;DHT22;5864;52.998;9.068;2023-05-29T09:51:25;21.10;1.00
11617;DHT22;5864;52.998;9.068;2023-05-29T09:54:15;22.20;1.00
11617;DHT22;5864;52.998;9.068;2023-05-29T09:57:01;22.20;1.00
11617;DHT22;5864;52.998;9.068;2023-05-29T09:59:48;23.00;1.00
11617;DHT22;5864;52.998;9.068;2023-05-29T10:02:39;22.70;1.00
11617;DHT22;5864;52.998;9.068;2023-05-29T10:05:25;23.50;1.00
11617;DHT22;5864;52.998;9.068;2023-05-29T10:08:12;24.10;1.00
11617;DHT22;5864;52.998;9.068;2023-05-29T10:10:59;23.20;1.00
11617;DHT22;5864;52.998;9.068;2023-05-29T10:13:47;23.50;1.00
11617;DHT22;5864;52.998;9.068;2023-05-29T10:16:35;23.70;1.00
11617;DHT22;5864;52.998;9.068;2023-05-29T10:19:29;24.00;1.00
11617;DHT22;5864;52.998;9.068;2023-05-29T10:22:16;24.60;1.00
11617;DHT22;5864;52.998;9.068;2023-05-29T10:25:05;24.80;1.00
11617;DHT22;5864;52.998;9.068;2023-05-29T10:27:51;24.10;1.00
11617;DHT22;5864;52.998;9.068;2023-05-29T10:30:41;23.40;1.00
11617;DHT22;5864;52.998;9.068;2023-05-29T10:33:39;23.10;1.00
11617;DHT22;5864;52.998;9.068;2023-05-29T10:36:35;24.00;1.00
11617;DHT22;5864;52.998;9.068;2023-05-29T10:39:23;24.20;1.00
11617;DHT22;5864;52.998;9.068;2023-05-29T10:42:43;24.20;1.00
11617;DHT22;5864;52.998;9.068;2023-05-29T10:45:56;23.50;1.00
11617;DHT22;5864;52.998;9.068;2023-05-29T10:48:42;23.10;1.00
11617;DHT22;5864;52.998;9.068;2023-05-29T10:51:29;23.40;1.00
11617;DHT22;5864;52.998;9.068;2023-05-29T10:54:21;23.70;1.00
11617;DHT22;5864;52.998;9.068;2023-05-29T10:57:08;24.30;1.00
11617;DHT22;5864;52.998;9.068;2023-05-29T10:59:59;24.50;1.00
11617;DHT22;5864;52.998;9.068;2023-05-29T11:02:44;24.80;1.00
11617;DHT22;5864;52.998;9.068;2023-05-29T11:05:31;25.10;1.00
11617;DHT22;5864;52.998;9.068;2023-05-29T11:08:16;25.80;1.00
11617;DHT22;5864;52.998;9.068;2023-05-29T11:11:29;24.70;1.00
11617;DHT22;5864;52.998;9.068;2023-05-29T11:14:15;24.80;1.00
11617;DHT22;5864;52.998;9.068;2023-05-29T11:17:00;24.90;1.00
11617;DHT22;5864;52.998;9.068;2023-05-29T11:19:50;25.20;1.00
11617;DHT22;5864;52.998;9.068;2023-05-29T11:23:01;25.60;1.00
11617;DHT22;5864;52.998;9.068;2023-05-29T11:25:47;24.30;1.00
11617;DHT22;5864;52.998;9.068;2023-05-29T11:28:36;23.90;1.00
11617;DHT22;5864;52.998;9.068;2023-05-29T11:31:22;23.60;1.00
11617;DHT22;5864;52.998;9.068;2023-05-29T11:34:13;23.90;1.00
11617;DHT22;5864;52.998;9.068;2023-05-29T11:36:59;23.90;1.00
11617;DHT22;5864;52.998;9.068;2023-05-29T11:39:46;23.70;1.00
11617;DHT22;5864;52.998;9.068;2023-05-29T11:42:32;23.90;1.00
11617;DHT22;5864;52.998;9.068;2023-05-29T11:45:21;24.50;1.00
11617;DHT22;5864;52.998;9.068;2023-05-29T11:48:07;24.40;1.00
11617;DHT22;5864;52.998;9.068;2023-05-29T11:50:53;24.40;1.00
11617;DHT22;5864;52.998;9.068;2023-05-29T11:53:40;24.00;1.00
11617;DHT22;5864;52.998;9.068;2023-05-29T11:56:26;23.10;1.00
11617;DHT22;5864;52.998;9.068;2023-05-29T11:59:11;22.70;1.00
11617;DHT22;5864;52.998;9.068;2023-05-29T12:01:58;23.90;1.00
11617;DHT22;5864;52.998;9.068;2023-05-29T12:04:59;23.50;1.00
11617;DHT22;5864;52.998;9.068;2023-05-29T12:07:51;23.40;1.00
11617;DHT22;5864;52.998;9.068;2023-05-29T12:10:46;23.60;1.00
11617;DHT22;5864;52.998;9.068;2023-05-29T12:13:33;24.20;1.00
11617;DHT22;5864;52.998;9.068;2023-05-29T12:16:19;24.80;1.00
11617;DHT22;5864;52.998;9.068;2023-05-29T12:19:06;24.60;1.00
11617;DHT22;5864;52.998;9.068;2023-05-29T12:21:52;24.90;1.00
11617;DHT22;5864;52.998;9.068;2023-05-29T12:24:37;24.50;1.00
11617;DHT22;5864;52.998;9.068;2023-05-29T12:27:24;24.60;1.00
11617;DHT22;5864;52.998;9.068;2023-05-29T12:30:11;24.60;1.00
11617;DHT22;5864;52.998;9.068;2023-05-29T12:32:59;24.90;1.00
11617;DHT22;5864;52.998;9.068;2023-05-29T12:35:47;24.80;1.00
11617;DHT22;5864;52.998;9.068;2023-05-29T12:38:33;24.80;1.00
11617;DHT22;5864;52.998;9.068;2023-05-29T12:41:25;25.00;1.00
11617;DHT22;5864;52.998;9.068;2023-05-29T12:44:12;24.90;1.00
11617;DHT22;5864;52.998;9.068;2023-05-29T12:46:58;25.00;1.00
11617;DHT22;5864;52.998;9.068;2023-05-29T12:49:43;25.20;1.00
11617;DHT22;5864;52.998;9.068;2023-05-29T12:52:30;24.80;1.00
11617;DHT22;5864;52.998;9.068;2023-05-29T12:55:17;24.60;1.00
11617;DHT22;5864;52.998;9.068;2023-05-29T12:58:03;24.30;1.00
11617;DHT22;5864;52.998;9.068;2023-05-29T13:00:52;24.90;1.00
11617;DHT22;5864;52.998;9.068;2023-05-29T13:03:39;25.40;1.00
11617;DHT22;5864;52.998;9.068;2023-05-29T13:06:25;25.20;1.00
11617;DHT22;5864;52.998;9.068;2023-05-29T13:09:11;24.90;1.00
11617;DHT22;5864;52.998;9.068;2023-05-29T13:11:58;25.10;1.00
11617;DHT22;5864;52.998;9.068;2023-05-29T13:14:45;24.50;1.00
11617;DHT22;5864;52.998;9.068;2023-05-29T13:17:31;24.40;1.00
11617;DHT22;5864;52.998;9.068;2023-05-29T13:20:17;24.00;1.00
11617;DHT22;5864;52.998;9.068;2023-05-29T13:23:03;24.40;1.00
11617;DHT22;5864;52.998;9.068;2023-05-29T13:25:50;24.30;1.00
11617;DHT22;5864;52.998;9.068;2023-05-29T13:28:36;23.70;1.00
11617;DHT22;5864;52.998;9.068;2023-05-29T13:31:22;22.60;1.00
11617;DHT22;5864;52.998;9.068;2023-05-29T13:34:07;22.40;1.00
11617;DHT22;5864;52.998;9.068;2023-05-29T13:36:53;22.30;1.00
11617;DHT22;5864;52.998;9.068;2023-05-29T13:39:39;23.40;1.00
11617;DHT22;5864;52.998;9.068;2023-05-29T13:42:26;23.70;1.00
11617;DHT22;5864;52.998;9.068;2023-05-29T13:45:11;24.20;1.00
11617;DHT22;5864;52.998;9.068;2023-05-29T13:47:59;24.00;1.00
11617;DHT22;5864;52.998;9.068;2023-05-29T13:50:45;23.70;1.00
11617;DHT22;5864;52.998;9.068;2023-05-29T13:53:30;23.10;1.00
11617;DHT22;5864;52.998;9.068;2023-05-29T13:56:16;23.10;1.00
11617;DHT22;5864;52.998;9.068;2023-05-29T13:59:03;23.50;1.00
11617;DHT22;5864;52.998;9.068;2023-05-29T14:01:49;23.60;1.00
11617;DHT22;5864;52.998;9.068;2023-05-29T14:04:35;23.90;1.00
11617;DHT22;5864;52.998;9.068;2023-05-29T14:07:22;23.70;1.00
11617;DHT22;5864;52.998;9.068;2023-05-29T14:10:09;23.50;1.00
11617;DHT22;5864;52.998;9.068;2023-05-29T14:12:55;23.10;1.00
11617;DHT22;5864;52.998;9.068;2023-05-29T14:15:42;22.90;1.00
11617;DHT22;5864;52.998;9.068;2023-05-29T14:18:28;23.20;1.00
11617;DHT22;5864;52.998;9.068;2023-05-29T14:21:14;23.40;1.00
11617;DHT22;5864;52.998;9.068;2023-05-29T14:24:00;23.60;1.00
11617;DHT22;5864;52.998;9.068;2023-05-29T14:26:45;23.50;1.00
11617;DHT22;5864;52.998;9.068;2023-05-29T14:29:31;22.60;1.00
11617;DHT22;5864;52.998;9.068;2023-05-29T14:32:18;22.80;1.00
11617;DHT22;5864;52.998;9.068;2023-05-29T14:35:05;22.70;1.00
11617;DHT22;5864;52.998;9.068;2023-05-29T14:37:50;22.30;1.00
11617;DHT22;5864;52.998;9.068;2023-05-29T14:40:35;22.80;1.00
11617;DHT22;5864;52.998;9.068;2023-05-29T14:43:22;22.70;1.00
11617;DHT22;5864;52.998;9.068;2023-05-29T14:46:08;22.90;1.00
11617;DHT22;5864;52.998;9.068;2023-05-29T14:48:55;22.90;1.00
11617;DHT22;5864;52.998;9.068;2023-05-29T14:51:40;23.40;1.00
11617;DHT22;5864;52.998;9.068;2023-05-29T14:54:26;23.50;1.00
11617;DHT22;5864;52.998;9.068;2023-05-29T14:57:12;23.40;1.00
11617;DHT22;5864;52.998;9.068;2023-05-29T14:59:58;23.00;1.00
11617;DHT22;5864;52.998;9.068;2023-05-29T15:02:43;21.90;1.00
11617;DHT22;5864;52.998;9.068;2023-05-29T15:05:31;21.60;1.00
11617;DHT22;5864;52.998;9.068;2023-05-29T15:08:17;21.90;1.00
11617;DHT22;5864;52.998;9.068;2023-05-29T15:11:03;22.10;1.00
11617;DHT22;5864;52.998;9.068;2023-05-29T15:13:49;22.20;1.00
11617;DHT22;5864;52.998;9.068;2023-05-29T15:16:34;22.10;1.00
11617;DHT22;5864;52.998;9.068;2023-05-29T15:19:20;21.90;1.00
11617;DHT22;5864;52.998;9.068;2023-05-29T15:22:07;21.60;1.00
11617;DHT22;5864;52.998;9.068;2023-05-29T15:24:53;21.60;1.00
11617;DHT22;5864;52.998;9.068;2023-05-29T15:27:39;21.00;1.00
11617;DHT22;5864;52.998;9.068;2023-05-29T15:30:25;21.20;1.00
11617;DHT22;5864;52.998;9.068;2023-05-29T15:33:11;21.40;1.00
11617;DHT22;5864;52.998;9.068;2023-05-29T15:35:57;21.30;1.00
11617;DHT22;5864;52.998;9.068;2023-05-29T15:38:44;21.40;1.00
11617;DHT22;5864;52.998;9.068;2023-05-29T15:41:30;21.10;1.00
11617;DHT22;5864;52.998;9.068;2023-05-29T15:44:15;21.10;1.00
11617;DHT22;5864;52.998;9.068;2023-05-29T15:47:02;21.20;1.00
11617;DHT22;5864;52.998;9.068;2023-05-29T15:49:48;21.30;1.00
11617;DHT22;5864;52.998;9.068;2023-05-29T15:52:34;21.50;1.00
11617;DHT22;5864;52.998;9.068;2023-05-29T15:55:21;21.10;1.00
11617;DHT22;5864;52.998;9.068;2023-05-29T15:58:07;21.10;1.00
11617;DHT22;5864;52.998;9.068;2023-05-29T16:00:53;21.20;1.00
11617;DHT22;5864;52.998;9.068;2023-05-29T16:03:38;21.20;1.00
11617;DHT22;5864;52.998;9.068;2023-05-29T16:06:24;20.80;1.00
11617;DHT22;5864;52.998;9.068;2023-05-29T16:09:09;20.80;1.00
11617;DHT22;5864;52.998;9.068;2023-05-29T16:11:57;20.70;1.00
11617;DHT22;5864;52.998;9.068;2023-05-29T16:14:42;20.00;1.00
11617;DHT22;5864;52.998;9.068;2023-05-29T16:17:28;19.90;1.00
11617;DHT22;5864;52.998;9.068;2023-05-29T16:20:13;19.60;1.00
11617;DHT22;5864;52.998;9.068;2023-05-29T16:22:59;19.60;1.00
11617;DHT22;5864;52.998;9.068;2023-05-29T16:25:45;19.50;1.00
11617;DHT22;5864;52.998;9.068;2023-05-29T16:28:32;19.50;1.00
11617;DHT22;5864;52.998;9.068;2023-05-29T16:31:18;19.30;1.00
11617;DHT22;5864;52.998;9.068;2023-05-29T16:34:04;19.50;1.00
11617;DHT22;5864;52.998;9.068;2023-05-29T16:36:49;19.60;1.00
11617;DHT22;5864;52.998;9.068;2023-05-29T16:39:35;19.90;1.00
11617;DHT22;5864;52.998;9.068;2023-05-29T16:42:21;20.00;1.00
11617;DHT22;5864;52.998;9.068;2023-05-29T16:45:08;19.60;1.00
11617;DHT22;5864;52.998;9.068;2023-05-29T16:47:54;19.80;1.00
11617;DHT22;5864;52.998;9.068;2023-05-29T16:50:39;19.60;1.00
11617;DHT22;5864;52.998;9.068;2023-05-29T16:53:25;19.70;1.00
11617;DHT22;5864;52.998;9.068;2023-05-29T16:56:11;19.40;1.00
11617;DHT22;5864;52.998;9.068;2023-05-29T16:58:57;19.40;1.00
11617;DHT22;5864;52.998;9.068;2023-05-29T17:01:44;19.20;1.00
11617;DHT22;5864;52.998;9.068;2023-05-29T17:04:30;18.90;1.00
11617;DHT22;5864;52.998;9.068;2023-05-29T17:07:17;19.00;1.00
11617;DHT22;5864;52.998;9.068;2023-05-29T17:10:02;19.20;1.00
11617;DHT22;5864;52.998;9.068;2023-05-29T17:12:48;19.10;1.00
11617;DHT22;5864;52.998;9.068;2023-05-29T17:15:33;19.00;1.00
11617;DHT22;5864;52.998;9.068;2023-05-29T17:18:20;18.70;1.00
11617;DHT22;5864;52.998;9.068;2023-05-29T17:21:06;18.70;1.00
11617;DHT22;5864;52.998;9.068;2023-05-29T17:23:52;18.50;1.00
11617;DHT22;5864;52.998;9.068;2023-05-29T17:26:39;18.20;1.00
11617;DHT22;5864;52.998;9.068;2023-05-29T17:29:25;18.30;1.00
11617;DHT22;5864;52.998;9.068;2023-05-29T17:32:10;18.20;1.00
11617;DHT22;5864;52.998;9.068;2023-05-29T17:34:58;18.30;1.00
11617;DHT22;5864;52.998;9.068;2023-05-29T17:37:44;18.20;1.00
11617;DHT22;5864;52.998;9.068;2023-05-29T17:40:30;18.30;1.00
11617;DHT22;5864;52.998;9.068;2023-05-29T17:43:16;17.80;1.00
11617;DHT22;5864;52.998;9.068;2023-05-29T17:46:02;17.70;1.00
11617;DHT22;5864;52.998;9.068;2023-05-29T17:48:48;17.60;1.00
11617;DHT22;5864;52.998;9.068;2023-05-29T17:51:35;17.50;1.00
11617;DHT22;5864;52.998;9.068;2023-05-29T17:54:22;17.50;1.00
11617;DHT22;5864;52.998;9.068;2023-05-29T17:57:07;17.20;1.00
11617;DHT22;5864;52.998;9.068;2023-05-29T17:59:53;17.20;1.00
11617;DHT22;5864;52.998;9.068;2023-05-29T18:02:38;17.20;1.00